This is the latest recevied weather packets stored in our database for station/object RUSSARO. If no packets are shown the sender has not sent any weather packets the latest 1 day(s).
| Time | Temp. | Humidity | Pressure | Rain* | Wind** | Luminosity | Snow |
|---|---|---|---|---|---|---|---|
| 1836274173 | 16.11° C | 97% | 1009 hPa | 0.25 mm | 12.52 m/s, 232° | - | - |
| 1778033243 | 3.89° C | 97% | 1011.2 hPa | 0 mm | 6.71 m/s, 249° | - | - |
| 1778032043 | 3.89° C | 97% | 1011 hPa | 0 mm | 5.81 m/s, 252° | - | - |
| 1778030843 | 3.89° C | 97% | 1010.7 hPa | 0 mm | 5.36 m/s, 252° | - | - |
| 1778029643 | 3.33° C | 96% | 1010.6 hPa | 0 mm | 4.92 m/s, 252° | - | - |
| 1778028442 | 3.33° C | 95% | 1010.4 hPa | 0 mm | 4.92 m/s, 255° | - | - |
| 1778027243 | 3.89° C | 92% | 1010.3 hPa | 0 mm | 5.36 m/s, 263° | - | - |
| 1778026043 | 3.89° C | 89% | 1010.3 hPa | 0 mm | 6.26 m/s, 282° | - | - |
| 1778024843 | 3.89° C | 89% | 1010.1 hPa | 0 mm | 4.92 m/s, 285° | - | - |
| 1778023643 | 3.89° C | 90% | 1010 hPa | 0 mm | 5.81 m/s, 280° | - | - |
| 1778022442 | 3.89° C | 91% | 1009.9 hPa | 0 mm | 6.26 m/s, 279° | - | - |
| 1778021242 | 3.89° C | 91% | 1009.9 hPa | 0 mm | 6.26 m/s, 282° | - | - |
| 1778020042 | 4.44° C | 90% | 1009.9 hPa | 0 mm | 6.71 m/s, 284° | - | - |
| 1778018843 | 4.44° C | 89% | 1009.8 hPa | 0 mm | 6.71 m/s, 285° | - | - |
| 1778017643 | 4.44° C | 90% | 1009.7 hPa | 0 mm | 7.15 m/s, 284° | - | - |
| 1778016442 | 4.44° C | 88% | 1009.7 hPa | 0 mm | 8.05 m/s, 281° | - | - |
| 1778015241 | 4.44° C | 86% | 1009.6 hPa | 0 mm | 8.49 m/s, 287° | - | - |
| 1778014042 | 4.44° C | 78% | 1009.4 hPa | 0 mm | 8.49 m/s, 283° | - | - |
| 1778012842 | 4.44° C | 78% | 1009.3 hPa | 0 mm | 8.94 m/s, 280° | - | - |
| 1778011642 | 4.44° C | 75% | 1009.1 hPa | 0 mm | 8.49 m/s, 283° | - | - |
| 1778010441 | 4.44° C | 91% | 1009 hPa | 0 mm | 8.05 m/s, 273° | - | - |
| 1778009242 | 4.44° C | 92% | 1009 hPa | 0 mm | 8.49 m/s, 270° | - | - |
| 1778008041 | 4.44° C | 88% | 1008.9 hPa | 0 mm | 8.94 m/s, 270° | - | - |
| 1778006841 | 4.44° C | 89% | 1008.8 hPa | 0 mm | 9.39 m/s, 268° | - | - |
| 1778005641 | 5° C | 81% | 1008.6 hPa | 0 mm | 9.39 m/s, 264° | - | - |
* Rain latest hour (hover to see other rain measurements)
** Current wind speed in m/s (hover to see current wind gust speed)